sensor_id;sensor_type;location;lat;lon;timestamp;temperature;humidity
23755;DHT22;12057;52.042;6.830;2023-09-19T00:02:08;17.90;99.90
23755;DHT22;12057;52.042;6.830;2023-09-19T00:07:09;18.30;99.90
23755;DHT22;12057;52.042;6.830;2023-09-19T00:12:10;18.30;99.90
23755;DHT22;12057;52.042;6.830;2023-09-19T00:17:13;18.30;99.90
23755;DHT22;12057;52.042;6.830;2023-09-19T00:22:16;18.40;99.90
23755;DHT22;12057;52.042;6.830;2023-09-19T00:27:20;18.50;99.90
23755;DHT22;12057;52.042;6.830;2023-09-19T00:32:21;18.50;99.90
23755;DHT22;12057;52.042;6.830;2023-09-19T00:37:21;18.50;99.90
23755;DHT22;12057;52.042;6.830;2023-09-19T00:42:22;18.50;99.90
23755;DHT22;12057;52.042;6.830;2023-09-19T00:47:23;18.40;99.90
23755;DHT22;12057;52.042;6.830;2023-09-19T00:52:24;18.30;99.90
23755;DHT22;12057;52.042;6.830;2023-09-19T00:57:25;18.30;99.90
23755;DHT22;12057;52.042;6.830;2023-09-19T01:02:27;18.50;99.90
23755;DHT22;12057;52.042;6.830;2023-09-19T01:07:30;18.50;99.90
23755;DHT22;12057;52.042;6.830;2023-09-19T01:23:29;18.50;99.90
23755;DHT22;12057;52.042;6.830;2023-09-19T01:34:14;18.50;99.90
23755;DHT22;12057;52.042;6.830;2023-09-19T01:39:15;18.60;99.90
23755;DHT22;12057;52.042;6.830;2023-09-19T01:44:40;18.50;99.90
23755;DHT22;12057;52.042;6.830;2023-09-19T01:49:55;18.30;99.90
23755;DHT22;12057;52.042;6.830;2023-09-19T01:55:05;18.40;99.90
23755;DHT22;12057;52.042;6.830;2023-09-19T02:00:09;18.50;99.90
23755;DHT22;12057;52.042;6.830;2023-09-19T02:05:12;18.30;99.90
23755;DHT22;12057;52.042;6.830;2023-09-19T02:10:13;17.80;99.90
23755;DHT22;12057;52.042;6.830;2023-09-19T02:15:15;17.70;99.90
23755;DHT22;12057;52.042;6.830;2023-09-19T02:20:16;17.80;99.90
23755;DHT22;12057;52.042;6.830;2023-09-19T02:25:17;17.70;99.90
23755;DHT22;12057;52.042;6.830;2023-09-19T02:30:19;17.40;99.90
23755;DHT22;12057;52.042;6.830;2023-09-19T02:35:25;17.60;99.90
23755;DHT22;12057;52.042;6.830;2023-09-19T02:40:26;17.40;99.90
23755;DHT22;12057;52.042;6.830;2023-09-19T02:45:31;17.40;99.90
23755;DHT22;12057;52.042;6.830;2023-09-19T02:50:32;17.40;99.90
23755;DHT22;12057;52.042;6.830;2023-09-19T02:55:34;17.60;99.90
23755;DHT22;12057;52.042;6.830;2023-09-19T03:00:35;17.40;99.90
23755;DHT22;12057;52.042;6.830;2023-09-19T03:05:36;17.50;99.90
23755;DHT22;12057;52.042;6.830;2023-09-19T03:10:41;17.30;99.90
23755;DHT22;12057;52.042;6.830;2023-09-19T03:15:42;17.20;99.90
23755;DHT22;12057;52.042;6.830;2023-09-19T03:20:55;17.20;99.90
23755;DHT22;12057;52.042;6.830;2023-09-19T03:25:56;17.20;99.90
23755;DHT22;12057;52.042;6.830;2023-09-19T03:31:05;17.00;99.90
23755;DHT22;12057;52.042;6.830;2023-09-19T03:36:06;17.00;99.90
23755;DHT22;12057;52.042;6.830;2023-09-19T03:41:07;16.90;99.90
23755;DHT22;12057;52.042;6.830;2023-09-19T03:46:08;17.10;99.90
23755;DHT22;12057;52.042;6.830;2023-09-19T03:51:09;17.00;99.90
23755;DHT22;12057;52.042;6.830;2023-09-19T03:56:10;17.00;99.90
23755;DHT22;12057;52.042;6.830;2023-09-19T04:01:11;16.90;99.90
23755;DHT22;12057;52.042;6.830;2023-09-19T04:06:17;17.00;99.90
23755;DHT22;12057;52.042;6.830;2023-09-19T04:11:18;16.80;99.90
23755;DHT22;12057;52.042;6.830;2023-09-19T04:16:18;16.60;99.90
23755;DHT22;12057;52.042;6.830;2023-09-19T04:21:20;16.50;99.90
23755;DHT22;12057;52.042;6.830;2023-09-19T04:26:21;16.60;99.90
23755;DHT22;12057;52.042;6.830;2023-09-19T04:31:22;16.40;99.90
23755;DHT22;12057;52.042;6.830;2023-09-19T04:36:23;16.30;99.90
23755;DHT22;12057;52.042;6.830;2023-09-19T04:41:23;16.40;99.90
23755;DHT22;12057;52.042;6.830;2023-09-19T04:46:25;16.40;99.90
23755;DHT22;12057;52.042;6.830;2023-09-19T04:51:25;16.50;99.90
23755;DHT22;12057;52.042;6.830;2023-09-19T04:56:29;16.50;99.90
23755;DHT22;12057;52.042;6.830;2023-09-19T05:01:30;16.20;99.90
23755;DHT22;12057;52.042;6.830;2023-09-19T05:06:34;16.10;99.90
23755;DHT22;12057;52.042;6.830;2023-09-19T05:11:36;16.30;99.90
23755;DHT22;12057;52.042;6.830;2023-09-19T05:16:38;16.10;99.90
23755;DHT22;12057;52.042;6.830;2023-09-19T05:21:40;16.10;99.90
23755;DHT22;12057;52.042;6.830;2023-09-19T05:26:41;15.80;99.90
23755;DHT22;12057;52.042;6.830;2023-09-19T05:31:42;16.10;99.90
23755;DHT22;12057;52.042;6.830;2023-09-19T05:36:43;16.00;99.90
23755;DHT22;12057;52.042;6.830;2023-09-19T05:41:44;16.20;99.90
23755;DHT22;12057;52.042;6.830;2023-09-19T05:46:45;16.30;99.90
23755;DHT22;12057;52.042;6.830;2023-09-19T05:51:48;16.40;99.90
23755;DHT22;12057;52.042;6.830;2023-09-19T05:56:49;16.20;99.90
23755;DHT22;12057;52.042;6.830;2023-09-19T06:01:53;16.50;99.90
23755;DHT22;12057;52.042;6.830;2023-09-19T06:06:53;16.40;99.90
23755;DHT22;12057;52.042;6.830;2023-09-19T06:11:54;16.40;99.90
23755;DHT22;12057;52.042;6.830;2023-09-19T06:16:56;16.30;99.90
23755;DHT22;12057;52.042;6.830;2023-09-19T06:21:56;16.50;99.90
23755;DHT22;12057;52.042;6.830;2023-09-19T06:27:00;16.80;99.90
23755;DHT22;12057;52.042;6.830;2023-09-19T06:32:01;16.50;99.90
23755;DHT22;12057;52.042;6.830;2023-09-19T06:37:02;16.60;99.90
23755;DHT22;12057;52.042;6.830;2023-09-19T06:42:04;16.60;99.90
23755;DHT22;12057;52.042;6.830;2023-09-19T06:47:05;16.40;99.90
23755;DHT22;12057;52.042;6.830;2023-09-19T06:52:06;16.80;99.90
23755;DHT22;12057;52.042;6.830;2023-09-19T06:57:07;17.00;99.90
23755;DHT22;12057;52.042;6.830;2023-09-19T07:02:10;16.90;99.90
23755;DHT22;12057;52.042;6.830;2023-09-19T07:07:11;17.20;99.90
23755;DHT22;12057;52.042;6.830;2023-09-19T07:12:13;17.30;99.90
23755;DHT22;12057;52.042;6.830;2023-09-19T07:17:14;17.50;99.90
23755;DHT22;12057;52.042;6.830;2023-09-19T07:22:18;17.60;99.90
23755;DHT22;12057;52.042;6.830;2023-09-19T07:27:19;17.40;99.90
23755;DHT22;12057;52.042;6.830;2023-09-19T07:32:19;17.70;99.90
23755;DHT22;12057;52.042;6.830;2023-09-19T07:37:20;18.00;99.90
23755;DHT22;12057;52.042;6.830;2023-09-19T07:42:21;18.00;99.90
23755;DHT22;12057;52.042;6.830;2023-09-19T07:47:22;18.20;99.90
23755;DHT22;12057;52.042;6.830;2023-09-19T07:52:23;18.00;99.90
23755;DHT22;12057;52.042;6.830;2023-09-19T07:57:24;18.00;99.90
23755;DHT22;12057;52.042;6.830;2023-09-19T08:02:25;18.20;99.90
23755;DHT22;12057;52.042;6.830;2023-09-19T08:07:26;18.30;99.90
23755;DHT22;12057;52.042;6.830;2023-09-19T08:12:29;18.60;99.90
23755;DHT22;12057;52.042;6.830;2023-09-19T08:17:36;18.30;99.90
23755;DHT22;12057;52.042;6.830;2023-09-19T08:22:40;18.50;99.90
23755;DHT22;12057;52.042;6.830;2023-09-19T08:27:41;18.90;99.90
23755;DHT22;12057;52.042;6.830;2023-09-19T08:32:44;19.10;99.90
23755;DHT22;12057;52.042;6.830;2023-09-19T08:37:44;19.40;99.90
23755;DHT22;12057;52.042;6.830;2023-09-19T08:42:52;19.60;99.90
23755;DHT22;12057;52.042;6.830;2023-09-19T08:48:20;20.00;99.90
23755;DHT22;12057;52.042;6.830;2023-09-19T08:58:53;20.20;99.90
23755;DHT22;12057;52.042;6.830;2023-09-19T09:03:55;20.50;99.90
23755;DHT22;12057;52.042;6.830;2023-09-19T09:08:57;20.70;99.90
23755;DHT22;12057;52.042;6.830;2023-09-19T09:13:59;20.60;99.90
23755;DHT22;12057;52.042;6.830;2023-09-19T09:18:59;20.50;99.90
23755;DHT22;12057;52.042;6.830;2023-09-19T09:24:21;20.90;99.90
23755;DHT22;12057;52.042;6.830;2023-09-19T09:29:56;20.70;99.90
23755;DHT22;12057;52.042;6.830;2023-09-19T09:34:59;20.50;99.90
23755;DHT22;12057;52.042;6.830;2023-09-19T09:40:01;20.40;99.90
23755;DHT22;12057;52.042;6.830;2023-09-19T09:45:31;20.60;99.90
23755;DHT22;12057;52.042;6.830;2023-09-19T09:50:36;20.90;99.90
23755;DHT22;12057;52.042;6.830;2023-09-19T09:56:06;21.20;99.90
23755;DHT22;12057;52.042;6.830;2023-09-19T10:01:07;21.50;99.90
23755;DHT22;12057;52.042;6.830;2023-09-19T10:06:16;21.70;99.90
23755;DHT22;12057;52.042;6.830;2023-09-19T10:11:27;22.10;99.90
23755;DHT22;12057;52.042;6.830;2023-09-19T10:16:31;22.60;99.90
23755;DHT22;12057;52.042;6.830;2023-09-19T10:21:34;23.00;99.90
23755;DHT22;12057;52.042;6.830;2023-09-19T10:26:37;22.70;99.90
23755;DHT22;12057;52.042;6.830;2023-09-19T10:31:39;22.50;99.90
23755;DHT22;12057;52.042;6.830;2023-09-19T10:36:48;22.90;99.90
23755;DHT22;12057;52.042;6.830;2023-09-19T10:41:53;22.90;99.90
23755;DHT22;12057;52.042;6.830;2023-09-19T10:46:59;22.90;99.90
23755;DHT22;12057;52.042;6.830;2023-09-19T10:52:01;23.30;99.90
23755;DHT22;12057;52.042;6.830;2023-09-19T10:57:02;22.70;99.90
23755;DHT22;12057;52.042;6.830;2023-09-19T11:02:25;22.80;99.90
23755;DHT22;12057;52.042;6.830;2023-09-19T11:07:26;22.80;99.90
23755;DHT22;12057;52.042;6.830;2023-09-19T11:17:44;23.40;99.90
23755;DHT22;12057;52.042;6.830;2023-09-19T11:33:18;23.40;99.90
23755;DHT22;12057;52.042;6.830;2023-09-19T11:43:45;22.40;99.90
23755;DHT22;12057;52.042;6.830;2023-09-19T11:48:48;22.80;99.90
23755;DHT22;12057;52.042;6.830;2023-09-19T11:53:51;23.10;99.90
23755;DHT22;12057;52.042;6.830;2023-09-19T11:58:54;22.60;99.90
23755;DHT22;12057;52.042;6.830;2023-09-19T12:03:57;22.40;99.90
23755;DHT22;12057;52.042;6.830;2023-09-19T12:09:12;22.90;99.90
23755;DHT22;12057;52.042;6.830;2023-09-19T12:14:24;23.30;99.90
23755;DHT22;12057;52.042;6.830;2023-09-19T12:19:26;23.40;99.90
23755;DHT22;12057;52.042;6.830;2023-09-19T12:24:28;23.00;99.90
23755;DHT22;12057;52.042;6.830;2023-09-19T12:29:30;22.90;99.90
23755;DHT22;12057;52.042;6.830;2023-09-19T12:34:32;22.90;99.90
23755;DHT22;12057;52.042;6.830;2023-09-19T12:39:36;22.70;99.90
23755;DHT22;12057;52.042;6.830;2023-09-19T12:44:43;23.30;99.90
23755;DHT22;12057;52.042;6.830;2023-09-19T12:50:07;23.30;99.90
23755;DHT22;12057;52.042;6.830;2023-09-19T12:55:20;22.90;99.90
23755;DHT22;12057;52.042;6.830;2023-09-19T13:00:21;22.80;99.50
23755;DHT22;12057;52.042;6.830;2023-09-19T13:05:54;23.40;99.90
23755;DHT22;12057;52.042;6.830;2023-09-19T13:11:05;23.70;99.50
23755;DHT22;12057;52.042;6.830;2023-09-19T13:16:07;23.00;99.90
23755;DHT22;12057;52.042;6.830;2023-09-19T13:21:09;23.50;99.60
23755;DHT22;12057;52.042;6.830;2023-09-19T13:26:15;23.60;99.70
23755;DHT22;12057;52.042;6.830;2023-09-19T13:31:16;23.30;98.70
23755;DHT22;12057;52.042;6.830;2023-09-19T13:36:17;23.10;99.20
23755;DHT22;12057;52.042;6.830;2023-09-19T13:41:19;22.90;99.90
23755;DHT22;12057;52.042;6.830;2023-09-19T13:46:20;22.30;99.90
23755;DHT22;12057;52.042;6.830;2023-09-19T13:51:26;22.10;99.90
23755;DHT22;12057;52.042;6.830;2023-09-19T13:56:26;22.40;99.90
23755;DHT22;12057;52.042;6.830;2023-09-19T14:01:31;22.10;99.90
23755;DHT22;12057;52.042;6.830;2023-09-19T14:06:32;22.40;99.90
23755;DHT22;12057;52.042;6.830;2023-09-19T14:11:33;22.20;99.90
23755;DHT22;12057;52.042;6.830;2023-09-19T14:16:34;21.90;99.90
23755;DHT22;12057;52.042;6.830;2023-09-19T14:21:35;22.20;99.90
23755;DHT22;12057;52.042;6.830;2023-09-19T14:26:36;22.30;99.90
23755;DHT22;12057;52.042;6.830;2023-09-19T14:31:44;22.20;99.90
23755;DHT22;12057;52.042;6.830;2023-09-19T14:36:44;22.30;99.90
23755;DHT22;12057;52.042;6.830;2023-09-19T14:41:45;22.30;99.90
23755;DHT22;12057;52.042;6.830;2023-09-19T14:46:46;22.30;99.90
23755;DHT22;12057;52.042;6.830;2023-09-19T14:51:46;22.20;99.90
23755;DHT22;12057;52.042;6.830;2023-09-19T14:56:50;22.30;99.90
23755;DHT22;12057;52.042;6.830;2023-09-19T15:01:56;22.50;99.90
23755;DHT22;12057;52.042;6.830;2023-09-19T15:06:57;22.00;99.90
23755;DHT22;12057;52.042;6.830;2023-09-19T15:11:58;21.90;99.90
23755;DHT22;12057;52.042;6.830;2023-09-19T15:16:58;21.90;99.90
23755;DHT22;12057;52.042;6.830;2023-09-19T15:21:59;22.30;99.90
23755;DHT22;12057;52.042;6.830;2023-09-19T15:27:00;22.20;99.90
23755;DHT22;12057;52.042;6.830;2023-09-19T15:32:31;22.10;99.90
23755;DHT22;12057;52.042;6.830;2023-09-19T15:43:31;21.90;99.90
23755;DHT22;12057;52.042;6.830;2023-09-19T15:54:43;21.80;99.90
23755;DHT22;12057;52.042;6.830;2023-09-19T15:59:45;22.00;99.90
23755;DHT22;12057;52.042;6.830;2023-09-19T16:04:55;21.70;99.90
23755;DHT22;12057;52.042;6.830;2023-09-19T16:09:55;21.60;99.90
23755;DHT22;12057;52.042;6.830;2023-09-19T16:14:56;21.50;99.90
23755;DHT22;12057;52.042;6.830;2023-09-19T16:19:57;21.80;99.90
23755;DHT22;12057;52.042;6.830;2023-09-19T16:24:58;21.90;99.90
23755;DHT22;12057;52.042;6.830;2023-09-19T16:29:58;21.70;99.90
23755;DHT22;12057;52.042;6.830;2023-09-19T16:34:59;21.60;99.90
23755;DHT22;12057;52.042;6.830;2023-09-19T16:40:00;21.50;99.90
23755;DHT22;12057;52.042;6.830;2023-09-19T16:45:01;21.10;99.90
23755;DHT22;12057;52.042;6.830;2023-09-19T16:50:02;21.40;99.90
23755;DHT22;12057;52.042;6.830;2023-09-19T16:55:03;21.20;99.90
23755;DHT22;12057;52.042;6.830;2023-09-19T17:00:04;21.20;99.90
23755;DHT22;12057;52.042;6.830;2023-09-19T17:05:06;21.00;99.90
23755;DHT22;12057;52.042;6.830;2023-09-19T17:10:07;21.10;99.90
23755;DHT22;12057;52.042;6.830;2023-09-19T17:15:08;20.90;99.90
23755;DHT22;12057;52.042;6.830;2023-09-19T17:20:09;21.30;99.90
23755;DHT22;12057;52.042;6.830;2023-09-19T17:25:10;21.20;99.90
23755;DHT22;12057;52.042;6.830;2023-09-19T17:30:13;21.20;99.90
23755;DHT22;12057;52.042;6.830;2023-09-19T17:35:17;21.10;99.90
23755;DHT22;12057;52.042;6.830;2023-09-19T17:40:18;21.20;99.90
23755;DHT22;12057;52.042;6.830;2023-09-19T17:45:19;21.00;99.90
23755;DHT22;12057;52.042;6.830;2023-09-19T17:50:20;21.00;99.90
23755;DHT22;12057;52.042;6.830;2023-09-19T17:55:21;21.00;99.90
23755;DHT22;12057;52.042;6.830;2023-09-19T18:00:22;20.90;99.90
23755;DHT22;12057;52.042;6.830;2023-09-19T18:05:26;21.00;99.90
23755;DHT22;12057;52.042;6.830;2023-09-19T18:10:26;21.00;99.90
23755;DHT22;12057;52.042;6.830;2023-09-19T18:15:29;20.90;99.90
23755;DHT22;12057;52.042;6.830;2023-09-19T18:20:34;20.60;99.90
23755;DHT22;12057;52.042;6.830;2023-09-19T18:25:35;21.10;99.90
23755;DHT22;12057;52.042;6.830;2023-09-19T18:30:37;21.00;99.90
23755;DHT22;12057;52.042;6.830;2023-09-19T18:35:38;21.10;99.90
23755;DHT22;12057;52.042;6.830;2023-09-19T18:40:43;20.90;99.90
23755;DHT22;12057;52.042;6.830;2023-09-19T18:45:43;20.90;99.90
23755;DHT22;12057;52.042;6.830;2023-09-19T18:50:44;20.80;99.90
23755;DHT22;12057;52.042;6.830;2023-09-19T18:55:45;20.80;99.90
23755;DHT22;12057;52.042;6.830;2023-09-19T19:00:46;20.80;99.90
23755;DHT22;12057;52.042;6.830;2023-09-19T19:05:46;20.80;99.90
23755;DHT22;12057;52.042;6.830;2023-09-19T19:10:47;20.80;99.90
23755;DHT22;12057;52.042;6.830;2023-09-19T19:15:48;21.00;99.90
23755;DHT22;12057;52.042;6.830;2023-09-19T19:20:59;20.70;99.90
23755;DHT22;12057;52.042;6.830;2023-09-19T19:26:04;20.50;99.90
23755;DHT22;12057;52.042;6.830;2023-09-19T19:31:08;20.60;99.90
23755;DHT22;12057;52.042;6.830;2023-09-19T19:36:12;20.50;99.90
23755;DHT22;12057;52.042;6.830;2023-09-19T19:41:13;20.60;99.90
23755;DHT22;12057;52.042;6.830;2023-09-19T19:46:13;20.30;99.90
23755;DHT22;12057;52.042;6.830;2023-09-19T19:51:14;20.40;99.90
23755;DHT22;12057;52.042;6.830;2023-09-19T19:56:15;20.40;99.90
23755;DHT22;12057;52.042;6.830;2023-09-19T20:01:16;20.40;99.90
23755;DHT22;12057;52.042;6.830;2023-09-19T20:06:17;20.30;99.90
23755;DHT22;12057;52.042;6.830;2023-09-19T20:11:22;20.50;99.90
23755;DHT22;12057;52.042;6.830;2023-09-19T20:16:29;20.20;99.90
23755;DHT22;12057;52.042;6.830;2023-09-19T20:21:32;20.30;99.90
23755;DHT22;12057;52.042;6.830;2023-09-19T20:26:35;20.40;99.90
23755;DHT22;12057;52.042;6.830;2023-09-19T20:31:37;20.30;99.90
23755;DHT22;12057;52.042;6.830;2023-09-19T20:36:38;20.30;99.90
23755;DHT22;12057;52.042;6.830;2023-09-19T20:41:39;20.00;99.90
23755;DHT22;12057;52.042;6.830;2023-09-19T20:46:40;20.40;99.90
23755;DHT22;12057;52.042;6.830;2023-09-19T20:51:40;20.50;99.90
23755;DHT22;12057;52.042;6.830;2023-09-19T20:56:42;20.20;99.90
23755;DHT22;12057;52.042;6.830;2023-09-19T21:01:43;20.50;99.90
23755;DHT22;12057;52.042;6.830;2023-09-19T21:06:44;20.50;99.90
23755;DHT22;12057;52.042;6.830;2023-09-19T21:11:45;20.60;99.90
23755;DHT22;12057;52.042;6.830;2023-09-19T21:16:46;20.50;99.90
23755;DHT22;12057;52.042;6.830;2023-09-19T21:21:49;20.40;99.90
23755;DHT22;12057;52.042;6.830;2023-09-19T21:26:49;20.50;99.90
23755;DHT22;12057;52.042;6.830;2023-09-19T21:31:52;20.30;99.90
23755;DHT22;12057;52.042;6.830;2023-09-19T21:36:53;20.50;99.90
23755;DHT22;12057;52.042;6.830;2023-09-19T21:41:54;20.40;99.90
23755;DHT22;12057;52.042;6.830;2023-09-19T21:46:55;20.30;99.90
23755;DHT22;12057;52.042;6.830;2023-09-19T21:51:56;20.30;99.90
23755;DHT22;12057;52.042;6.830;2023-09-19T21:56:57;20.30;99.90
23755;DHT22;12057;52.042;6.830;2023-09-19T22:01:57;20.50;99.90
23755;DHT22;12057;52.042;6.830;2023-09-19T22:06:59;20.40;99.90
23755;DHT22;12057;52.042;6.830;2023-09-19T22:12:00;20.40;99.90
23755;DHT22;12057;52.042;6.830;2023-09-19T22:17:01;20.50;99.90
23755;DHT22;12057;52.042;6.830;2023-09-19T22:22:02;20.60;99.90
23755;DHT22;12057;52.042;6.830;2023-09-19T22:27:03;20.50;99.90
23755;DHT22;12057;52.042;6.830;2023-09-19T22:32:05;20.50;99.90
23755;DHT22;12057;52.042;6.830;2023-09-19T22:37:07;20.20;99.90
23755;DHT22;12057;52.042;6.830;2023-09-19T22:42:09;20.70;99.90
23755;DHT22;12057;52.042;6.830;2023-09-19T22:47:11;20.60;99.90
23755;DHT22;12057;52.042;6.830;2023-09-19T22:52:12;20.70;99.90
23755;DHT22;12057;52.042;6.830;2023-09-19T22:57:14;20.40;99.90
23755;DHT22;12057;52.042;6.830;2023-09-19T23:02:15;20.60;99.90
23755;DHT22;12057;52.042;6.830;2023-09-19T23:07:18;20.50;99.90
23755;DHT22;12057;52.042;6.830;2023-09-19T23:12:21;20.50;99.90
23755;DHT22;12057;52.042;6.830;2023-09-19T23:17:23;20.70;99.90
23755;DHT22;12057;52.042;6.830;2023-09-19T23:22:24;20.50;99.90
23755;DHT22;12057;52.042;6.830;2023-09-19T23:27:29;20.50;99.90
23755;DHT22;12057;52.042;6.830;2023-09-19T23:50:25;20.80;99.90
23755;DHT22;12057;52.042;6.830;2023-09-19T23:55:29;20.60;99.90
